sensor_id;sensor_type;location;lat;lon;timestamp;pressure;altitude;pressure_sealevel;temperature;humidity
39265;BME280;42646;51.910;7.724;2023-04-07T00:00:15;100841.41;;;7.02;100.00
39265;BME280;42646;51.910;7.724;2023-04-07T00:02:43;100841.41;;;7.02;100.00
39265;BME280;42646;51.910;7.724;2023-04-07T00:05:12;100838.44;;;7.06;100.00
39265;BME280;42646;51.910;7.724;2023-04-07T00:07:40;100842.00;;;7.05;100.00
39265;BME280;42646;51.910;7.724;2023-04-07T00:10:23;100845.53;;;7.06;100.00
39265;BME280;42646;51.910;7.724;2023-04-07T00:12:51;100837.47;;;7.07;100.00
39265;BME280;42646;51.910;7.724;2023-04-07T00:15:20;100835.03;;;7.04;100.00
39265;BME280;42646;51.910;7.724;2023-04-07T00:17:47;100836.72;;;7.05;100.00
39265;BME280;42646;51.910;7.724;2023-04-07T00:20:15;100831.44;;;7.05;100.00
39265;BME280;42646;51.910;7.724;2023-04-07T00:22:43;100834.81;;;7.07;100.00
39265;BME280;42646;51.910;7.724;2023-04-07T00:25:11;100831.09;;;7.10;100.00
39265;BME280;42646;51.910;7.724;2023-04-07T00:27:40;100829.41;;;7.09;100.00
39265;BME280;42646;51.910;7.724;2023-04-07T00:30:09;100832.06;;;7.09;100.00
39265;BME280;42646;51.910;7.724;2023-04-07T00:32:37;100828.56;;;7.08;100.00
39265;BME280;42646;51.910;7.724;2023-04-07T00:35:05;100830.50;;;7.06;100.00
39265;BME280;42646;51.910;7.724;2023-04-07T00:37:33;100825.09;;;7.08;100.00
39265;BME280;42646;51.910;7.724;2023-04-07T00:40:01;100825.09;;;7.08;100.00
39265;BME280;42646;51.910;7.724;2023-04-07T00:42:29;100821.47;;;7.09;100.00
39265;BME280;42646;51.910;7.724;2023-04-07T00:44:58;100815.22;;;7.10;100.00
39265;BME280;42646;51.910;7.724;2023-04-07T00:47:26;100824.84;;;7.11;100.00
39265;BME280;42646;51.910;7.724;2023-04-07T00:49:54;100816.81;;;7.12;100.00
39265;BME280;42646;51.910;7.724;2023-04-07T00:52:23;100815.97;;;7.12;100.00
39265;BME280;42646;51.910;7.724;2023-04-07T00:54:55;100812.25;;;7.14;100.00
39265;BME280;42646;51.910;7.724;2023-04-07T00:57:23;100810.78;;;7.10;100.00
39265;BME280;42646;51.910;7.724;2023-04-07T00:59:51;100803.81;;;7.09;100.00
39265;BME280;42646;51.910;7.724;2023-04-07T01:02:27;100809.94;;;7.10;100.00
39265;BME280;42646;51.910;7.724;2023-04-07T01:05:06;100813.41;;;7.10;100.00
39265;BME280;42646;51.910;7.724;2023-04-07T01:07:45;100807.28;;;7.10;100.00
39265;BME280;42646;51.910;7.724;2023-04-07T01:10:18;100793.09;;;7.11;100.00
39265;BME280;42646;51.910;7.724;2023-04-07T01:13:00;100801.03;;;7.11;100.00
39265;BME280;42646;51.910;7.724;2023-04-07T01:15:29;100801.88;;;7.11;100.00
39265;BME280;42646;51.910;7.724;2023-04-07T01:18:08;100791.53;;;7.08;100.00
39265;BME280;42646;51.910;7.724;2023-04-07T01:20:37;100794.19;;;7.08;100.00
39265;BME280;42646;51.910;7.724;2023-04-07T01:23:06;100790.69;;;7.08;100.00
39265;BME280;42646;51.910;7.724;2023-04-07T01:25:52;100785.41;;;7.08;100.00
39265;BME280;42646;51.910;7.724;2023-04-07T01:28:38;100790.56;;;7.09;100.00
39265;BME280;42646;51.910;7.724;2023-04-07T01:31:11;100789.00;;;7.07;100.00
39265;BME280;42646;51.910;7.724;2023-04-07T01:33:43;100789.97;;;7.06;100.00
39265;BME280;42646;51.910;7.724;2023-04-07T01:36:17;100790.81;;;7.06;100.00
39265;BME280;42646;51.910;7.724;2023-04-07T01:38:46;100788.25;;;7.05;100.00
39265;BME280;42646;51.910;7.724;2023-04-07T01:41:16;100782.88;;;7.06;100.00
39265;BME280;42646;51.910;7.724;2023-04-07T01:43:47;100787.22;;;7.07;100.00
39265;BME280;42646;51.910;7.724;2023-04-07T01:46:16;100788.25;;;7.05;100.00
39265;BME280;42646;51.910;7.724;2023-04-07T01:48:44;100781.16;;;7.05;100.00
39265;BME280;42646;51.910;7.724;2023-04-07T01:51:15;100788.25;;;7.05;100.00
39265;BME280;42646;51.910;7.724;2023-04-07T01:53:44;100786.56;;;7.04;100.00
39265;BME280;42646;51.910;7.724;2023-04-07T01:56:13;100787.41;;;7.04;100.00
39265;BME280;42646;51.910;7.724;2023-04-07T01:58:45;100785.53;;;7.06;100.00
39265;BME280;42646;51.910;7.724;2023-04-07T02:01:17;100787.22;;;7.07;100.00
39265;BME280;42646;51.910;7.724;2023-04-07T02:03:49;100782.88;;;7.06;100.00
39265;BME280;42646;51.910;7.724;2023-04-07T02:06:23;100777.59;;;7.06;100.00
39265;BME280;42646;51.910;7.724;2023-04-07T02:08:57;100781.06;;;7.07;100.00
39265;BME280;42646;51.910;7.724;2023-04-07T02:11:26;100778.31;;;7.08;100.00
39265;BME280;42646;51.910;7.724;2023-04-07T02:21:55;100781.06;;;7.07;100.00
39265;BME280;42646;51.910;7.724;2023-04-07T02:24:24;100773.88;;;7.09;100.00
39265;BME280;42646;51.910;7.724;2023-04-07T02:26:52;100778.31;;;7.08;100.00
39265;BME280;42646;51.910;7.724;2023-04-07T02:29:19;100774.69;;;7.09;100.00
39265;BME280;42646;51.910;7.724;2023-04-07T02:31:47;100777.34;;;7.09;100.00
39265;BME280;42646;51.910;7.724;2023-04-07T02:34:15;100779.03;;;7.10;100.00
39265;BME280;42646;51.910;7.724;2023-04-07T02:36:43;100774.56;;;7.11;100.00
39265;BME280;42646;51.910;7.724;2023-04-07T02:39:39;100779.66;;;7.14;100.00
39265;BME280;42646;51.910;7.724;2023-04-07T02:42:10;100778.81;;;7.13;100.00
39265;BME280;42646;51.910;7.724;2023-04-07T02:45:07;100782.31;;;7.14;100.00
39265;BME280;42646;51.910;7.724;2023-04-07T02:47:39;100781.34;;;7.15;100.00
39265;BME280;42646;51.910;7.724;2023-04-07T02:50:07;100781.34;;;7.15;100.00
39265;BME280;42646;51.910;7.724;2023-04-07T02:52:35;100780.38;;;7.16;100.00
39265;BME280;42646;51.910;7.724;2023-04-07T02:55:11;100787.47;;;7.15;100.00
39265;BME280;42646;51.910;7.724;2023-04-07T02:57:39;100773.28;;;7.16;100.00
39265;BME280;42646;51.910;7.724;2023-04-07T03:00:19;100775.00;;;7.17;100.00
39265;BME280;42646;51.910;7.724;2023-04-07T03:02:56;100774.13;;;7.17;100.00
39265;BME280;42646;51.910;7.724;2023-04-07T03:05:27;100781.22;;;7.16;100.00
39265;BME280;42646;51.910;7.724;2023-04-07T03:07:55;100772.44;;;7.16;100.00
39265;BME280;42646;51.910;7.724;2023-04-07T03:10:24;100771.47;;;7.17;100.00
39265;BME280;42646;51.910;7.724;2023-04-07T03:12:54;100779.53;;;7.15;100.00
39265;BME280;42646;51.910;7.724;2023-04-07T03:15:22;100776.91;;;7.15;100.00
39265;BME280;42646;51.910;7.724;2023-04-07T03:18:15;100781.47;;;7.13;100.00
39265;BME280;42646;51.910;7.724;2023-04-07T03:20:43;100781.34;;;7.15;100.00
39265;BME280;42646;51.910;7.724;2023-04-07T03:23:13;100779.66;;;7.14;100.00
39265;BME280;42646;51.910;7.724;2023-04-07T03:25:43;100787.47;;;7.15;100.00
39265;BME280;42646;51.910;7.724;2023-04-07T03:31:12;100780.72;;;7.11;100.00
39265;BME280;42646;51.910;7.724;2023-04-07T03:33:41;100780.72;;;7.11;100.00
39265;BME280;42646;51.910;7.724;2023-04-07T03:36:10;100778.19;;;7.10;100.00
39265;BME280;42646;51.910;7.724;2023-04-07T03:38:40;100774.69;;;7.09;100.00
39265;BME280;42646;51.910;7.724;2023-04-07T03:41:09;100780.63;;;7.13;100.00
39265;BME280;42646;51.910;7.724;2023-04-07T03:43:38;100782.44;;;7.12;100.00
39265;BME280;42646;51.910;7.724;2023-04-07T03:46:06;100784.22;;;7.12;100.00
39265;BME280;42646;51.910;7.724;2023-04-07T03:48:34;100774.38;;;7.14;100.00
39265;BME280;42646;51.910;7.724;2023-04-07T03:51:07;100787.59;;;7.14;100.00
39265;BME280;42646;51.910;7.724;2023-04-07T03:53:36;100787.47;;;7.15;100.00
39265;BME280;42646;51.910;7.724;2023-04-07T03:56:26;100787.47;;;7.15;100.00
39265;BME280;42646;51.910;7.724;2023-04-07T03:58:56;100790.00;;;7.17;100.00
39265;BME280;42646;51.910;7.724;2023-04-07T04:01:35;100796.50;;;7.13;100.00
39265;BME280;42646;51.910;7.724;2023-04-07T04:04:09;100787.59;;;7.14;100.00
39265;BME280;42646;51.910;7.724;2023-04-07T04:06:37;100792.88;;;7.14;100.00
39265;BME280;42646;51.910;7.724;2023-04-07T04:09:15;100789.28;;;7.15;100.00
39265;BME280;42646;51.910;7.724;2023-04-07T04:11:47;100795.41;;;7.15;100.00
39265;BME280;42646;51.910;7.724;2023-04-07T04:14:20;100794.56;;;7.15;100.00
39265;BME280;42646;51.910;7.724;2023-04-07T04:16:54;100798.19;;;7.14;100.00
39265;BME280;42646;51.910;7.724;2023-04-07T04:19:33;100788.56;;;7.13;100.00
39265;BME280;42646;51.910;7.724;2023-04-07T04:22:08;100800.19;;;7.10;100.00
39265;BME280;42646;51.910;7.724;2023-04-07T04:24:46;100801.88;;;7.11;100.00
39265;BME280;42646;51.910;7.724;2023-04-07T04:27:15;100797.53;;;7.10;100.00
39265;BME280;42646;51.910;7.724;2023-04-07T04:29:46;100794.91;;;7.10;100.00
39265;BME280;42646;51.910;7.724;2023-04-07T04:32:16;100793.94;;;7.11;100.00
39265;BME280;42646;51.910;7.724;2023-04-07T04:34:44;100799.16;;;7.13;100.00
39265;BME280;42646;51.910;7.724;2023-04-07T04:37:13;100801.78;;;7.13;100.00
39265;BME280;42646;51.910;7.724;2023-04-07T04:39:44;100808.75;;;7.14;100.00
39265;BME280;42646;51.910;7.724;2023-04-07T04:42:17;100799.97;;;7.13;100.00
39265;BME280;42646;51.910;7.724;2023-04-07T04:44:46;100802.50;;;7.15;100.00
39265;BME280;42646;51.910;7.724;2023-04-07T04:47:16;100807.06;;;7.13;100.00
39265;BME280;42646;51.910;7.724;2023-04-07T04:49:46;100809.81;;;7.11;100.00
39265;BME280;42646;51.910;7.724;2023-04-07T04:52:14;100811.63;;;7.11;100.00
39265;BME280;42646;51.910;7.724;2023-04-07T04:54:45;100817.75;;;7.11;100.00
39265;BME280;42646;51.910;7.724;2023-04-07T04:57:14;100812.47;;;7.11;100.00
39265;BME280;42646;51.910;7.724;2023-04-07T04:59:44;100817.75;;;7.11;100.00
39265;BME280;42646;51.910;7.724;2023-04-07T05:02:12;100820.31;;;7.13;100.00
39265;BME280;42646;51.910;7.724;2023-04-07T05:04:40;100823.78;;;7.13;100.00
39265;BME280;42646;51.910;7.724;2023-04-07T05:07:20;100818.50;;;7.13;100.00
39265;BME280;42646;51.910;7.724;2023-04-07T05:09:47;100822.00;;;7.14;100.00
39265;BME280;42646;51.910;7.724;2023-04-07T05:12:19;100821.16;;;7.13;100.00
39265;BME280;42646;51.910;7.724;2023-04-07T05:14:55;100823.78;;;7.13;100.00
39265;BME280;42646;51.910;7.724;2023-04-07T05:17:48;100824.63;;;7.14;100.00
39265;BME280;42646;51.910;7.724;2023-04-07T05:20:21;100830.88;;;7.13;100.00
39265;BME280;42646;51.910;7.724;2023-04-07T05:22:50;100829.22;;;7.12;100.00
39265;BME280;42646;51.910;7.724;2023-04-07T05:25:20;100835.44;;;7.11;100.00
39265;BME280;42646;51.910;7.724;2023-04-07T05:27:52;100836.19;;;7.13;100.00
39265;BME280;42646;51.910;7.724;2023-04-07T05:30:22;100838.81;;;7.13;100.00
39265;BME280;42646;51.910;7.724;2023-04-07T05:32:51;100838.91;;;7.11;100.00
39265;BME280;42646;51.910;7.724;2023-04-07T05:35:34;100835.34;;;7.12;100.00
39265;BME280;42646;51.910;7.724;2023-04-07T05:38:02;100835.22;;;7.14;100.00
39265;BME280;42646;51.910;7.724;2023-04-07T05:40:30;100841.22;;;7.16;100.00
39265;BME280;42646;51.910;7.724;2023-04-07T05:43:03;100844.72;;;7.16;100.00
39265;BME280;42646;51.910;7.724;2023-04-07T05:45:35;100841.22;;;7.16;100.00
39265;BME280;42646;51.910;7.724;2023-04-07T05:48:04;100843.88;;;7.16;100.00
39265;BME280;42646;51.910;7.724;2023-04-07T05:50:40;100846.44;;;7.17;100.00
39265;BME280;42646;51.910;7.724;2023-04-07T05:53:11;100846.44;;;7.17;100.00
39265;BME280;42646;51.910;7.724;2023-04-07T05:55:41;100848.13;;;7.18;100.00
39265;BME280;42646;51.910;7.724;2023-04-07T05:58:18;100847.28;;;7.18;100.00
39265;BME280;42646;51.910;7.724;2023-04-07T06:00:54;100850.75;;;7.18;100.00
39265;BME280;42646;51.910;7.724;2023-04-07T06:03:22;100851.59;;;7.19;100.00
39265;BME280;42646;51.910;7.724;2023-04-07T06:05:58;100854.13;;;7.20;100.00
39265;BME280;42646;51.910;7.724;2023-04-07T06:08:27;100859.31;;;7.22;100.00
39265;BME280;42646;51.910;7.724;2023-04-07T06:10:55;100866.06;;;7.26;100.00
39265;BME280;42646;51.910;7.724;2023-04-07T06:13:23;100863.53;;;7.25;100.00
39265;BME280;42646;51.910;7.724;2023-04-07T06:15:54;100864.38;;;7.25;100.00
39265;BME280;42646;51.910;7.724;2023-04-07T06:18:24;100868.59;;;7.28;100.00
39265;BME280;42646;51.910;7.724;2023-04-07T06:20:53;100870.41;;;7.27;100.00
39265;BME280;42646;51.910;7.724;2023-04-07T06:23:21;100873.69;;;7.31;100.00
39265;BME280;42646;51.910;7.724;2023-04-07T06:25:48;100877.28;;;7.30;100.00
39265;BME280;42646;51.910;7.724;2023-04-07T06:28:21;100873.69;;;7.31;100.00
39265;BME280;42646;51.910;7.724;2023-04-07T06:30:49;100881.63;;;7.31;100.00
39265;BME280;42646;51.910;7.724;2023-04-07T06:33:19;100878.00;;;7.32;100.00
39265;BME280;42646;51.910;7.724;2023-04-07T06:35:50;100883.19;;;7.33;100.00
39265;BME280;42646;51.910;7.724;2023-04-07T06:38:18;100887.31;;;7.37;100.00
39265;BME280;42646;51.910;7.724;2023-04-07T06:40:46;100886.97;;;7.42;100.00
39265;BME280;42646;51.910;7.724;2023-04-07T06:43:13;100890.47;;;7.42;100.00
39265;BME280;42646;51.910;7.724;2023-04-07T06:45:49;100885.06;;;7.44;100.00
39265;BME280;42646;51.910;7.724;2023-04-07T06:48:17;100889.25;;;7.46;100.00
39265;BME280;42646;51.910;7.724;2023-04-07T06:50:48;100891.06;;;7.46;100.00
39265;BME280;42646;51.910;7.724;2023-04-07T06:53:16;100893.63;;;7.47;100.00
39265;BME280;42646;51.910;7.724;2023-04-07T06:55:44;100892.66;;;7.48;100.00
39265;BME280;42646;51.910;7.724;2023-04-07T06:58:15;100891.47;;;7.53;100.00
39265;BME280;42646;51.910;7.724;2023-04-07T07:00:43;100894.97;;;7.53;100.00
39265;BME280;42646;51.910;7.724;2023-04-07T07:03:13;100893.06;;;7.55;100.00
39265;BME280;42646;51.910;7.724;2023-04-07T07:05:41;100902.47;;;7.59;100.00
39265;BME280;42646;51.910;7.724;2023-04-07T07:08:10;100900.66;;;7.60;100.00
39265;BME280;42646;51.910;7.724;2023-04-07T07:10:39;100905.72;;;7.63;100.00
39265;BME280;42646;51.910;7.724;2023-04-07T07:13:06;100901.91;;;7.67;100.00
39265;BME280;42646;51.910;7.724;2023-04-07T07:15:34;100899.00;;;7.70;100.00
39265;BME280;42646;51.910;7.724;2023-04-07T07:18:02;100902.50;;;7.70;100.00
39265;BME280;42646;51.910;7.724;2023-04-07T07:20:29;100897.19;;;7.70;100.00
39265;BME280;42646;51.910;7.724;2023-04-07T07:22:57;100907.69;;;7.72;100.00
39265;BME280;42646;51.910;7.724;2023-04-07T07:25:26;100906.63;;;7.74;100.00
39265;BME280;42646;51.910;7.724;2023-04-07T07:27:54;100913.97;;;7.82;100.00
39265;BME280;42646;51.910;7.724;2023-04-07T07:30:23;100921.22;;;7.80;100.00
39265;BME280;42646;51.910;7.724;2023-04-07T07:32:51;100922.88;;;7.81;100.00
39265;BME280;42646;51.910;7.724;2023-04-07T07:35:20;100922.69;;;7.84;100.00
39265;BME280;42646;51.910;7.724;2023-04-07T07:37:51;100924.03;;;7.90;100.00
39265;BME280;42646;51.910;7.724;2023-04-07T07:40:46;100929.06;;;7.93;100.00
39265;BME280;42646;51.910;7.724;2023-04-07T07:43:14;100930.66;;;7.95;100.00
39265;BME280;42646;51.910;7.724;2023-04-07T07:45:44;100932.03;;;8.01;100.00
39265;BME280;42646;51.910;7.724;2023-04-07T07:48:11;100938.50;;;7.97;100.00
39265;BME280;42646;51.910;7.724;2023-04-07T07:50:39;100942.09;;;7.96;100.00
39265;BME280;42646;51.910;7.724;2023-04-07T07:53:08;100943.06;;;7.95;100.00
39265;BME280;42646;51.910;7.724;2023-04-07T07:55:36;100945.47;;;7.98;100.00
39265;BME280;42646;51.910;7.724;2023-04-07T07:58:04;100950.78;;;7.98;100.00
39265;BME280;42646;51.910;7.724;2023-04-07T08:00:35;100953.22;;;8.01;100.00
39265;BME280;42646;51.910;7.724;2023-04-07T08:03:04;100955.63;;;8.04;100.00
39265;BME280;42646;51.910;7.724;2023-04-07T08:05:31;100961.41;;;8.09;100.00
39265;BME280;42646;51.910;7.724;2023-04-07T08:08:00;100960.47;;;8.10;100.00
39265;BME280;42646;51.910;7.724;2023-04-07T08:10:28;100959.41;;;8.13;100.00
39265;BME280;42646;51.910;7.724;2023-04-07T08:12:56;100967.09;;;8.16;100.00
39265;BME280;42646;51.910;7.724;2023-04-07T08:15:25;100968.06;;;8.15;100.00
39265;BME280;42646;51.910;7.724;2023-04-07T08:17:54;100974.94;;;8.17;100.00
39265;BME280;42646;51.910;7.724;2023-04-07T08:20:22;100974.72;;;8.20;100.00
39265;BME280;42646;51.910;7.724;2023-04-07T08:22:50;100975.78;;;8.18;100.00
39265;BME280;42646;51.910;7.724;2023-04-07T08:25:18;100976.66;;;8.18;100.00
39265;BME280;42646;51.910;7.724;2023-04-07T08:27:46;100980.03;;;8.20;100.00
39265;BME280;42646;51.910;7.724;2023-04-07T08:30:14;100982.41;;;8.23;100.00
39265;BME280;42646;51.910;7.724;2023-04-07T08:32:43;100980.72;;;8.22;100.00
39265;BME280;42646;51.910;7.724;2023-04-07T08:35:11;100989.44;;;8.24;100.00
39265;BME280;42646;51.910;7.724;2023-04-07T08:37:46;100991.13;;;8.25;100.00
39265;BME280;42646;51.910;7.724;2023-04-07T08:40:15;100995.22;;;8.29;100.00
39265;BME280;42646;51.910;7.724;2023-04-07T08:42:45;100992.56;;;8.29;100.00
39265;BME280;42646;51.910;7.724;2023-04-07T08:45:15;100988.97;;;8.30;100.00
39265;BME280;42646;51.910;7.724;2023-04-07T08:47:45;100985.06;;;8.36;100.00
39265;BME280;42646;51.910;7.724;2023-04-07T08:50:16;100982.28;;;8.38;100.00
39265;BME280;42646;51.910;7.724;2023-04-07T08:52:45;100993.00;;;8.36;100.00
39265;BME280;42646;51.910;7.724;2023-04-07T08:55:16;100992.13;;;8.36;100.00
39265;BME280;42646;51.910;7.724;2023-04-07T08:57:44;100998.06;;;8.39;100.00
39265;BME280;42646;51.910;7.724;2023-04-07T09:00:14;100999.41;;;8.45;100.00
39265;BME280;42646;51.910;7.724;2023-04-07T09:02:46;100997.47;;;8.47;100.00
39265;BME280;42646;51.910;7.724;2023-04-07T09:05:14;101002.56;;;8.50;100.00
39265;BME280;42646;51.910;7.724;2023-04-07T09:07:42;101006.75;;;8.52;100.00
39265;BME280;42646;51.910;7.724;2023-04-07T09:10:12;101009.19;;;8.55;100.00
39265;BME280;42646;51.910;7.724;2023-04-07T09:12:39;101013.28;;;8.60;100.00
39265;BME280;42646;51.910;7.724;2023-04-07T09:15:07;101012.22;;;8.62;100.00
39265;BME280;42646;51.910;7.724;2023-04-07T09:17:36;101014.88;;;8.62;100.00
39265;BME280;42646;51.910;7.724;2023-04-07T09:20:07;101017.53;;;8.62;100.00
39265;BME280;42646;51.910;7.724;2023-04-07T09:22:36;101021.53;;;8.68;100.00
39265;BME280;42646;51.910;7.724;2023-04-07T09:25:12;101021.66;;;8.66;100.00
39265;BME280;42646;51.910;7.724;2023-04-07T09:27:53;101017.06;;;8.68;100.00
39265;BME280;42646;51.910;7.724;2023-04-07T09:30:22;101027.53;;;8.70;100.00
39265;BME280;42646;51.910;7.724;2023-04-07T09:32:50;101025.72;;;8.70;100.00
39265;BME280;42646;51.910;7.724;2023-04-07T09:35:19;101030.19;;;8.70;100.00
39265;BME280;42646;51.910;7.724;2023-04-07T09:38:03;101030.06;;;8.71;100.00
39265;BME280;42646;51.910;7.724;2023-04-07T09:40:32;101026.34;;;8.74;100.00
39265;BME280;42646;51.910;7.724;2023-04-07T09:43:01;101030.69;;;8.75;100.00
39265;BME280;42646;51.910;7.724;2023-04-07T09:45:31;101026.34;;;8.74;100.00
39265;BME280;42646;51.910;7.724;2023-04-07T09:48:06;101030.06;;;8.71;100.00
39265;BME280;42646;51.910;7.724;2023-04-07T09:50:39;101029.34;;;8.69;100.00
39265;BME280;42646;51.910;7.724;2023-04-07T09:53:11;101032.97;;;8.68;100.00
39265;BME280;42646;51.910;7.724;2023-04-07T09:55:39;101033.19;;;8.65;100.00
39265;BME280;42646;51.910;7.724;2023-04-07T09:58:07;101041.16;;;8.65;100.00
39265;BME280;42646;51.910;7.724;2023-04-07T10:00:39;101036.81;;;8.64;100.00
39265;BME280;42646;51.910;7.724;2023-04-07T10:03:12;101043.22;;;8.62;100.00
39265;BME280;42646;51.910;7.724;2023-04-07T10:05:43;101038.63;;;8.64;100.00
39265;BME280;42646;51.910;7.724;2023-04-07T10:08:12;101047.41;;;8.64;100.00
39265;BME280;42646;51.910;7.724;2023-04-07T10:10:42;101043.81;;;8.65;100.00
39265;BME280;42646;51.910;7.724;2023-04-07T10:13:16;101044.19;;;8.61;100.00
39265;BME280;42646;51.910;7.724;2023-04-07T10:16:09;101050.66;;;8.56;100.00
39265;BME280;42646;51.910;7.724;2023-04-07T10:18:39;101051.28;;;8.60;100.00
39265;BME280;42646;51.910;7.724;2023-04-07T10:21:15;101055.50;;;8.63;100.00
39265;BME280;42646;51.910;7.724;2023-04-07T10:23:48;101056.00;;;8.68;100.00
39265;BME280;42646;51.910;7.724;2023-04-07T10:26:46;101062.38;;;8.65;100.00
39265;BME280;42646;51.910;7.724;2023-04-07T10:29:18;101065.91;;;8.66;100.00
39265;BME280;42646;51.910;7.724;2023-04-07T10:31:47;101069.59;;;8.63;100.00
39265;BME280;42646;51.910;7.724;2023-04-07T10:34:15;101066.94;;;8.63;100.00
39265;BME280;42646;51.910;7.724;2023-04-07T10:37:09;101066.75;;;8.66;100.00
39265;BME280;42646;51.910;7.724;2023-04-07T10:39:38;101069.59;;;8.63;100.00
39265;BME280;42646;51.910;7.724;2023-04-07T10:42:06;101076.38;;;8.67;100.00
39265;BME280;42646;51.910;7.724;2023-04-07T10:44:45;101078.69;;;8.72;100.00
39265;BME280;42646;51.910;7.724;2023-04-07T10:47:13;101075.66;;;8.76;100.00
39265;BME280;42646;51.910;7.724;2023-04-07T10:52:43;101086.31;;;8.88;100.00
39265;BME280;42646;51.910;7.724;2023-04-07T10:55:32;101082.81;;;8.87;100.00
39265;BME280;42646;51.910;7.724;2023-04-07T10:58:16;101079.44;;;8.85;100.00
39265;BME280;42646;51.910;7.724;2023-04-07T11:03:51;101073.03;;;8.88;100.00
39265;BME280;42646;51.910;7.724;2023-04-07T11:06:48;101080.78;;;8.91;100.00
39265;BME280;42646;51.910;7.724;2023-04-07T11:09:19;101079.56;;;8.95;100.00
39265;BME280;42646;51.910;7.724;2023-04-07T11:11:47;101089.84;;;8.99;100.00
39265;BME280;42646;51.910;7.724;2023-04-07T11:14:27;101082.63;;;9.01;100.00
39265;BME280;42646;51.910;7.724;2023-04-07T11:16:57;101089.38;;;9.05;100.00
39265;BME280;42646;51.910;7.724;2023-04-07T11:19:27;101092.50;;;9.10;100.00
39265;BME280;42646;51.910;7.724;2023-04-07T11:22:13;101086.97;;;9.14;100.00
39265;BME280;42646;51.910;7.724;2023-04-07T11:24:56;101088.41;;;9.18;100.00
39265;BME280;42646;51.910;7.724;2023-04-07T11:27:25;101084.31;;;9.25;100.00
39265;BME280;42646;51.910;7.724;2023-04-07T11:29:54;101092.19;;;9.26;100.00
39265;BME280;42646;51.910;7.724;2023-04-07T11:32:23;101089.88;;;9.22;100.00
39265;BME280;42646;51.910;7.724;2023-04-07T11:34:53;101094.22;;;9.23;100.00
39265;BME280;42646;51.910;7.724;2023-04-07T11:37:24;101093.16;;;9.25;100.00
39265;BME280;42646;51.910;7.724;2023-04-07T11:39:54;101099.81;;;9.31;100.00
39265;BME280;42646;51.910;7.724;2023-04-07T11:42:33;101102.81;;;9.38;100.00
39265;BME280;42646;51.910;7.724;2023-04-07T11:45:04;101104.84;;;9.34;100.00
39265;BME280;42646;51.910;7.724;2023-04-07T11:47:34;101097.03;;;9.32;100.00
39265;BME280;42646;51.910;7.724;2023-04-07T11:50:02;101107.03;;;9.29;100.00
39265;BME280;42646;51.910;7.724;2023-04-07T11:52:39;101107.63;;;9.32;100.00
39265;BME280;42646;51.910;7.724;2023-04-07T11:55:16;101114.38;;;9.36;100.00
39265;BME280;42646;51.910;7.724;2023-04-07T11:57:49;101109.31;;;9.33;100.00
39265;BME280;42646;51.910;7.724;2023-04-07T12:00:18;101117.50;;;9.30;100.00
39265;BME280;42646;51.910;7.724;2023-04-07T12:02:46;101113.66;;;9.34;100.00
39265;BME280;42646;51.910;7.724;2023-04-07T12:05:14;101118.38;;;9.31;100.00
39265;BME280;42646;51.910;7.724;2023-04-07T12:07:51;101120.91;;;9.32;100.00
39265;BME280;42646;51.910;7.724;2023-04-07T12:10:21;101133.09;;;9.35;100.00
39265;BME280;42646;51.910;7.724;2023-04-07T12:12:50;101126.47;;;9.41;100.00
39265;BME280;42646;51.910;7.724;2023-04-07T12:15:20;101130.94;;;9.40;100.00
39265;BME280;42646;51.910;7.724;2023-04-07T12:17:48;101134.69;;;9.38;100.00
39265;BME280;42646;51.910;7.724;2023-04-07T12:20:16;101134.56;;;9.39;100.00
39265;BME280;42646;51.910;7.724;2023-04-07T12:22:44;101143.03;;;9.44;100.00
39265;BME280;42646;51.910;7.724;2023-04-07T12:25:13;101138.19;;;9.49;100.00
39265;BME280;42646;51.910;7.724;2023-04-07T12:27:41;101136.59;;;9.47;100.00
39265;BME280;42646;51.910;7.724;2023-04-07T12:30:11;101152.78;;;9.44;100.00
39265;BME280;42646;51.910;7.724;2023-04-07T12:32:39;101142.28;;;9.42;100.00
39265;BME280;42646;51.910;7.724;2023-04-07T12:35:07;101151.00;;;9.44;100.00
39265;BME280;42646;51.910;7.724;2023-04-07T12:37:36;101148.19;;;9.46;100.00
39265;BME280;42646;51.910;7.724;2023-04-07T12:40:04;101153.28;;;9.49;100.00
39265;BME280;42646;51.910;7.724;2023-04-07T12:42:32;101151.09;;;9.54;100.00
39265;BME280;42646;51.910;7.724;2023-04-07T12:45:00;101154.38;;;9.57;100.00
39265;BME280;42646;51.910;7.724;2023-04-07T12:47:30;101156.06;;;9.58;100.00
39265;BME280;42646;51.910;7.724;2023-04-07T12:49:59;101153.53;;;9.57;100.00
39265;BME280;42646;51.910;7.724;2023-04-07T12:52:27;101153.28;;;9.60;100.00
39265;BME280;42646;51.910;7.724;2023-04-07T12:54:54;101163.91;;;9.60;100.00
39265;BME280;42646;51.910;7.724;2023-04-07T12:57:22;101154.25;;;9.59;100.00
39265;BME280;42646;51.910;7.724;2023-04-07T12:59:50;101159.69;;;9.57;100.00
39265;BME280;42646;51.910;7.724;2023-04-07T13:02:18;101155.84;;;9.61;100.00
39265;BME280;42646;51.910;7.724;2023-04-07T13:04:47;101161.00;;;9.63;100.00
39265;BME280;42646;51.910;7.724;2023-04-07T13:07:15;101161.72;;;9.65;100.00
39265;BME280;42646;51.910;7.724;2023-04-07T13:09:43;101161.38;;;9.70;100.00
39265;BME280;42646;51.910;7.724;2023-04-07T13:12:11;101162.22;;;9.70;100.00
39265;BME280;42646;51.910;7.724;2023-04-07T13:14:40;101159.94;;;9.77;100.00
39265;BME280;42646;51.910;7.724;2023-04-07T13:17:25;101160.41;;;9.82;100.00
39265;BME280;42646;51.910;7.724;2023-04-07T13:19:55;101168.75;;;9.88;100.00
39265;BME280;42646;51.910;7.724;2023-04-07T13:22:23;101167.78;;;9.89;100.00
39265;BME280;42646;51.910;7.724;2023-04-07T13:24:51;101170.56;;;9.99;100.00
39265;BME280;42646;51.910;7.724;2023-04-07T13:27:18;101177.19;;;9.94;100.00